Barrington, NJ (08007)

11:06 AM EDT on July 23, 2017 (GMT -0400)
Magnolia Borough | | Change Station

Elev 92 ft 39.85 °N, 75.03 °W | Updated 14 seconds ago

Overcast
Overcast
78.8 °F
Feels Like 82 °F
N
1.1
Wind Variable Wind from ENE
Gusts 4.9 mph

Today
High -- | Low -- °F
--% Chance of Precip.
Yesterday
High -- | Low -- °F
Precip. -- in
Pressure 29.79 in
Visibility 10.0 miles
Clouds Mostly Cloudy 1800 ft
Mostly Cloudy 3500 ft
Overcast 7000 ft
Heat Index 82 °F
Dew Point 71 °F
Humidity 77%
Rainfall 0.00 in
Snow Depth Not available.
5:51 AM 8:21 PM
New Moon, 0% visible
METAR KPHL 231454Z 09006KT 10SM BKN018 BKN035 OVC070 27/22 A2979 RMK AO2 SLP088 T02720217 51011 $
Pressure 29.79 in
Visibility 10.0 miles
Clouds Mostly Cloudy 1800 ft
Mostly Cloudy 3500 ft
Overcast 7000 ft
Heat Index 82 °F
Dew Point 71 °F
Humidity 77%
Rainfall 0.00 in
Snow Depth Not available.
5:51 AM 8:21 PM
New Moon, 0% visible
METAR KPHL 231454Z 09006KT 10SM BKN018 BKN035 OVC070 27/22 A2979 RMK AO2 SLP088 T02720217 51011 $

Get Severe Weather Alerts

Thanks for signing up!

Be on the lookout for a verification email in your inbox.

You'll start receiving the daily forecast at 6 AM.

×

10-Day Weather Forecast

Almanac

Astronomy

Jul. 23, 2017 Rise Set
Actual Time
Civil Twilight
Nautical Twilight
Astronomical Twilight
Moon
Length of Visible Light
Length of Day
Tomorrow will be .
, % of the Moon is Illuminated

Today's Extremes

State Highs State Lows

Community

WunderPhotos

Category 6

Welcome to Category 6. This is the collective home for Weather Underground's featured writeups by Dr. Jeff Masters (right), Bob Henson (left), Chris Burt, and other regular contributors.

Nearby

Air Quality

  Air Quality AQ Index Pollutant
Not available.

Snow Depth

Station Depth Elevation

Earthquake Activity

City Distance Mag. Time & Date
Minimum magnitude displayed is 2.5.

Coastal Water Temperatures

Place Temperature

Stations

Nearby Weather Stations

Station Location Temp. Windchill Dew Point Humidity Wind Precip. Elev Updated Type
                   

Watches & Warnings

There are currently no watches in effect.